PWSweather.com
Personal Weather Stations
Station Observations
IBAVARIA50
Munich, PlieningDE 85652

MunichPlieningDE 85652

Lat: 48.19916153, Lon: 11.79794312

Elevation: 504

Station Type: Davis Vantage Pro2

http://wetterstation-pliening.info

High Low Average
Temperature 76.3°F24.6°C 45.9°F7.7°C 59.9°F15.5°C
Dew Point 55.8°F13.2°C 43.1°F6.2°C 48.9°F9.4°C
Winds 11.0 mph 17.7 kmh Calm Calm 2.0 mph SE3.2 kmh SE
Wind Gusts 13.0 mph20.9 kmh -- 5.0 mph8.0 kmh
Humidity 92% 39% 70%
Pressure 30.00 in1015.9 mb 29.85 in1010.8 mb -
Precipitation 0.00 in0.0 mm - -
Hour Temp Dew Point Humidity Winds Wind Gusts Pressure Precip Precip Rate Daily Precip Total
12:00 AM 51.5°F10.8°C 47.7°F8.7°C 87% Calm Calm 1.0 mph1.6 kmh 30.00 in1015.9 mb 0.00 in0.0 mm 0.00 in0.0 mm 0.00 in0.0 mm
12:05 AM 51.3°F10.7°C 47.5°F8.6°C 87% Calm Calm 2.0 mph3.2 kmh 30.00 in1015.9 mb 0.00 in0.0 mm 0.00 in0.0 mm 0.00 in0.0 mm
12:10 AM 51.3°F10.7°C 47.5°F8.6°C 87% Calm Calm -- 30.00 in1015.9 mb 0.00 in0.0 mm 0.00 in0.0 mm 0.00 in0.0 mm
12:15 AM 51.4°F10.8°C 47.6°F8.7°C 87% Calm Calm -- 30.00 in1015.9 mb 0.00 in0.0 mm 0.00 in0.0 mm 0.00 in0.0 mm
12:20 AM 51.4°F10.8°C 47.6°F8.7°C 87% 2.0 mph SSE3.2 kmh SSE 2.0 mph3.2 kmh 30.00 in1015.9 mb 0.00 in0.0 mm 0.00 in0.0 mm 0.00 in0.0 mm
12:25 AM 51.4°F10.8°C 47.9°F8.8°C 88% Calm Calm 3.0 mph4.8 kmh 30.00 in1015.9 mb 0.00 in0.0 mm 0.00 in0.0 mm 0.00 in0.0 mm
12:30 AM 51.4°F10.8°C 47.6°F8.7°C 87% Calm Calm -- 30.00 in1015.9 mb 0.00 in0.0 mm 0.00 in0.0 mm 0.00 in0.0 mm
12:35 AM 51.4°F10.8°C 47.6°F8.7°C 87% Calm Calm -- 30.00 in1015.9 mb 0.00 in0.0 mm 0.00 in0.0 mm 0.00 in0.0 mm
12:40 AM 51.3°F10.7°C 47.5°F8.6°C 87% Calm Calm -- 30.00 in1015.9 mb 0.00 in0.0 mm 0.00 in0.0 mm 0.00 in0.0 mm
12:45 AM 51.2°F10.7°C 47.4°F8.6°C 87% Calm Calm 1.0 mph1.6 kmh 30.00 in1015.9 mb 0.00 in0.0 mm 0.00 in0.0 mm 0.00 in0.0 mm
12:50 AM 51.2°F10.7°C 47.4°F8.6°C 87% Calm Calm -- 30.00 in1015.9 mb 0.00 in0.0 mm 0.00 in0.0 mm 0.00 in0.0 mm
12:55 AM 51.2°F10.7°C 47.4°F8.6°C 87% Calm Calm -- 30.00 in1015.9 mb 0.00 in0.0 mm 0.00 in0.0 mm 0.00 in0.0 mm
01:00 AM 51.2°F10.7°C 47.4°F8.6°C 87% Calm Calm 1.0 mph1.6 kmh 30.00 in1015.9 mb 0.00 in0.0 mm 0.00 in0.0 mm 0.00 in0.0 mm
01:05 AM 51.2°F10.7°C 47.4°F8.6°C 87% Calm Calm -- 30.00 in1015.9 mb 0.00 in0.0 mm 0.00 in0.0 mm 0.00 in0.0 mm
01:10 AM 51.1°F10.6°C 47.0°F8.3°C 86% Calm Calm 1.0 mph1.6 kmh 30.00 in1015.9 mb 0.00 in0.0 mm 0.00 in0.0 mm 0.00 in0.0 mm
01:15 AM 50.8°F10.4°C 47.0°F8.3°C 87% 1.0 mph S1.6 kmh S 3.0 mph4.8 kmh 30.00 in1015.9 mb 0.00 in0.0 mm 0.00 in0.0 mm 0.00 in0.0 mm
01:20 AM 50.7°F10.4°C 46.9°F8.3°C 87% Calm Calm 1.0 mph1.6 kmh 29.99 in1015.6 mb 0.00 in0.0 mm 0.00 in0.0 mm 0.00 in0.0 mm
01:25 AM 50.6°F10.3°C 47.1°F8.4°C 88% Calm Calm -- 29.99 in1015.6 mb 0.00 in0.0 mm 0.00 in0.0 mm 0.00 in0.0 mm
01:30 AM 50.3°F10.2°C 46.8°F8.2°C 88% Calm Calm -- 29.99 in1015.6 mb 0.00 in0.0 mm 0.00 in0.0 mm 0.00 in0.0 mm
01:35 AM 50.1°F10.1°C 46.6°F8.1°C 88% Calm Calm 1.0 mph1.6 kmh 29.99 in1015.6 mb 0.00 in0.0 mm 0.00 in0.0 mm 0.00 in0.0 mm
01:40 AM 50.0°F10.0°C 46.5°F8.1°C 88% Calm Calm 2.0 mph3.2 kmh 29.99 in1015.6 mb 0.00 in0.0 mm 0.00 in0.0 mm 0.00 in0.0 mm
01:45 AM 49.8°F9.9°C 46.3°F7.9°C 88% Calm Calm 1.0 mph1.6 kmh 29.99 in1015.6 mb 0.00 in0.0 mm 0.00 in0.0 mm 0.00 in0.0 mm
01:50 AM 49.8°F9.9°C 46.6°F8.1°C 89% Calm Calm -- 29.99 in1015.6 mb 0.00 in0.0 mm 0.00 in0.0 mm 0.00 in0.0 mm
01:55 AM 49.8°F9.9°C 46.6°F8.1°C 89% Calm Calm -- 29.99 in1015.6 mb 0.00 in0.0 mm 0.00 in0.0 mm 0.00 in0.0 mm
02:00 AM 49.8°F9.9°C 46.6°F8.1°C 89% Calm Calm -- 29.99 in1015.6 mb 0.00 in0.0 mm 0.00 in0.0 mm 0.00 in0.0 mm
02:05 AM 49.8°F9.9°C 46.6°F8.1°C 89% Calm Calm -- 29.99 in1015.6 mb 0.00 in0.0 mm 0.00 in0.0 mm 0.00 in0.0 mm
02:10 AM 49.8°F9.9°C 46.6°F8.1°C 89% Calm Calm -- 29.99 in1015.6 mb 0.00 in0.0 mm 0.00 in0.0 mm 0.00 in0.0 mm
02:15 AM 49.8°F9.9°C 46.3°F7.9°C 88% Calm Calm -- 29.98 in1015.2 mb 0.00 in0.0 mm 0.00 in0.0 mm 0.00 in0.0 mm
02:20 AM 49.7°F9.8°C 46.5°F8.1°C 89% Calm Calm -- 29.98 in1015.2 mb 0.00 in0.0 mm 0.00 in0.0 mm 0.00 in0.0 mm
02:25 AM 49.7°F9.8°C 46.5°F8.1°C 89% Calm Calm -- 29.98 in1015.2 mb 0.00 in0.0 mm 0.00 in0.0 mm 0.00 in0.0 mm
02:30 AM 49.8°F9.9°C 46.6°F8.1°C 89% Calm Calm -- 29.98 in1015.2 mb 0.00 in0.0 mm 0.00 in0.0 mm 0.00 in0.0 mm
02:35 AM 49.9°F9.9°C 46.7°F8.2°C 89% Calm Calm -- 29.98 in1015.2 mb 0.00 in0.0 mm 0.00 in0.0 mm 0.00 in0.0 mm
02:40 AM 49.8°F9.9°C 46.6°F8.1°C 89% Calm Calm -- 29.98 in1015.2 mb 0.00 in0.0 mm 0.00 in0.0 mm 0.00 in0.0 mm
02:45 AM 49.8°F9.9°C 46.6°F8.1°C 89% Calm Calm -- 29.98 in1015.2 mb 0.00 in0.0 mm 0.00 in0.0 mm 0.00 in0.0 mm
02:50 AM 49.8°F9.9°C 46.6°F8.1°C 89% Calm Calm -- 29.98 in1015.2 mb 0.00 in0.0 mm 0.00 in0.0 mm 0.00 in0.0 mm
02:55 AM 49.8°F9.9°C 46.6°F8.1°C 89% Calm Calm -- 29.98 in1015.2 mb 0.00 in0.0 mm 0.00 in0.0 mm 0.00 in0.0 mm
03:00 AM 49.8°F9.9°C 46.6°F8.1°C 89% Calm Calm -- 29.98 in1015.2 mb 0.00 in0.0 mm 0.00 in0.0 mm 0.00 in0.0 mm
03:05 AM 49.9°F9.9°C 46.7°F8.2°C 89% 2.0 mph SE3.2 kmh SE 2.0 mph3.2 kmh 29.98 in1015.2 mb 0.00 in0.0 mm 0.00 in0.0 mm 0.00 in0.0 mm
03:10 AM 49.9°F9.9°C 46.7°F8.2°C 89% Calm Calm 3.0 mph4.8 kmh 29.98 in1015.2 mb 0.00 in0.0 mm 0.00 in0.0 mm 0.00 in0.0 mm
03:15 AM 50.0°F10.0°C 46.8°F8.2°C 89% Calm Calm -- 29.98 in1015.2 mb 0.00 in0.0 mm 0.00 in0.0 mm 0.00 in0.0 mm
03:20 AM 50.0°F10.0°C 46.8°F8.2°C 89% Calm Calm -- 29.98 in1015.2 mb 0.00 in0.0 mm 0.00 in0.0 mm 0.00 in0.0 mm
03:25 AM 50.0°F10.0°C 46.8°F8.2°C 89% 1.0 mph SE1.6 kmh SE 1.0 mph1.6 kmh 29.98 in1015.2 mb 0.00 in0.0 mm 0.00 in0.0 mm 0.00 in0.0 mm
03:30 AM 50.0°F10.0°C 46.8°F8.2°C 89% Calm Calm 1.0 mph1.6 kmh 29.98 in1015.2 mb 0.00 in0.0 mm 0.00 in0.0 mm 0.00 in0.0 mm
03:35 AM 50.0°F10.0°C 46.5°F8.1°C 88% Calm Calm 1.0 mph1.6 kmh 29.98 in1015.2 mb 0.00 in0.0 mm 0.00 in0.0 mm 0.00 in0.0 mm
03:40 AM 49.9°F9.9°C 46.4°F8.0°C 88% 1.0 mph SE1.6 kmh SE 2.0 mph3.2 kmh 29.98 in1015.2 mb 0.00 in0.0 mm 0.00 in0.0 mm 0.00 in0.0 mm
03:45 AM 49.7°F9.8°C 47.4°F8.6°C 92% 3.0 mph SE4.8 kmh SE 4.0 mph6.4 kmh 29.98 in1015.2 mb 0.00 in0.0 mm 0.00 in0.0 mm 0.00 in0.0 mm
03:50 AM 49.5°F9.7°C 46.3°F7.9°C 89% 3.0 mph ESE4.8 kmh ESE 4.0 mph6.4 kmh 29.98 in1015.2 mb 0.00 in0.0 mm 0.00 in0.0 mm 0.00 in0.0 mm
03:55 AM 49.5°F9.7°C 46.6°F8.1°C 90% Calm Calm 4.0 mph6.4 kmh 29.98 in1015.2 mb 0.00 in0.0 mm 0.00 in0.0 mm 0.00 in0.0 mm
04:00 AM 49.2°F9.6°C 46.0°F7.8°C 89% Calm Calm -- 29.98 in1015.2 mb 0.00 in0.0 mm 0.00 in0.0 mm 0.00 in0.0 mm
04:05 AM 49.0°F9.4°C 45.8°F7.7°C 89% Calm Calm -- 29.99 in1015.6 mb 0.00 in0.0 mm 0.00 in0.0 mm 0.00 in0.0 mm
04:10 AM 48.7°F9.3°C 45.6°F7.6°C 89% Calm Calm -- 29.99 in1015.6 mb 0.00 in0.0 mm 0.00 in0.0 mm 0.00 in0.0 mm
04:15 AM 48.4°F9.1°C 45.3°F7.4°C 89% Calm Calm -- 29.99 in1015.6 mb 0.00 in0.0 mm 0.00 in0.0 mm 0.00 in0.0 mm
04:20 AM 48.0°F8.9°C 44.9°F7.2°C 89% Calm Calm -- 29.99 in1015.6 mb 0.00 in0.0 mm 0.00 in0.0 mm 0.00 in0.0 mm
04:25 AM 47.9°F8.8°C 44.8°F7.1°C 89% Calm Calm -- 29.99 in1015.6 mb 0.00 in0.0 mm 0.00 in0.0 mm 0.00 in0.0 mm
04:30 AM 47.9°F8.8°C 44.8°F7.1°C 89% Calm Calm -- 29.99 in1015.6 mb 0.00 in0.0 mm 0.00 in0.0 mm 0.00 in0.0 mm
04:35 AM 47.6°F8.7°C 44.5°F6.9°C 89% Calm Calm -- 29.99 in1015.6 mb 0.00 in0.0 mm 0.00 in0.0 mm 0.00 in0.0 mm
04:40 AM 47.5°F8.6°C 44.7°F7.1°C 90% Calm Calm -- 29.99 in1015.6 mb 0.00 in0.0 mm 0.00 in0.0 mm 0.00 in0.0 mm
04:45 AM 47.4°F8.6°C 44.6°F7.0°C 90% Calm Calm -- 29.99 in1015.6 mb 0.00 in0.0 mm 0.00 in0.0 mm 0.00 in0.0 mm
04:50 AM 47.4°F8.6°C 44.6°F7.0°C 90% Calm Calm -- 29.99 in1015.6 mb 0.00 in0.0 mm 0.00 in0.0 mm 0.00 in0.0 mm
04:55 AM 47.2°F8.4°C 44.4°F6.9°C 90% 2.0 mph SSW3.2 kmh SSW 3.0 mph4.8 kmh 29.99 in1015.6 mb 0.00 in0.0 mm 0.00 in0.0 mm 0.00 in0.0 mm
05:00 AM 47.1°F8.4°C 44.3°F6.8°C 90% 1.0 mph SSW1.6 kmh SSW 3.0 mph4.8 kmh 29.99 in1015.6 mb 0.00 in0.0 mm 0.00 in0.0 mm 0.00 in0.0 mm
05:05 AM 47.2°F8.4°C 44.4°F6.9°C 90% Calm Calm 1.0 mph1.6 kmh 30.00 in1015.9 mb 0.00 in0.0 mm 0.00 in0.0 mm 0.00 in0.0 mm
05:10 AM 47.1°F8.4°C 44.3°F6.8°C 90% Calm Calm 2.0 mph3.2 kmh 30.00 in1015.9 mb 0.00 in0.0 mm 0.00 in0.0 mm 0.00 in0.0 mm
05:15 AM 47.1°F8.4°C 44.3°F6.8°C 90% Calm Calm -- 30.00 in1015.9 mb 0.00 in0.0 mm 0.00 in0.0 mm 0.00 in0.0 mm
05:20 AM 47.1°F8.4°C 44.3°F6.8°C 90% Calm Calm -- 29.99 in1015.6 mb 0.00 in0.0 mm 0.00 in0.0 mm 0.00 in0.0 mm
05:25 AM 46.9°F8.3°C 44.1°F6.7°C 90% 1.0 mph SSW1.6 kmh SSW 2.0 mph3.2 kmh 29.99 in1015.6 mb 0.00 in0.0 mm 0.00 in0.0 mm 0.00 in0.0 mm
05:30 AM 46.7°F8.2°C 43.9°F6.6°C 90% 2.0 mph SSW3.2 kmh SSW 3.0 mph4.8 kmh 29.99 in1015.6 mb 0.00 in0.0 mm 0.00 in0.0 mm 0.00 in0.0 mm
05:35 AM 46.5°F8.1°C 43.7°F6.5°C 90% 3.0 mph S4.8 kmh S 3.0 mph4.8 kmh 29.99 in1015.6 mb 0.00 in0.0 mm 0.00 in0.0 mm 0.00 in0.0 mm
05:40 AM 46.4°F8.0°C 43.9°F6.6°C 91% Calm Calm 4.0 mph6.4 kmh 29.99 in1015.6 mb 0.00 in0.0 mm 0.00 in0.0 mm 0.00 in0.0 mm
05:45 AM 46.4°F8.0°C 43.9°F6.6°C 91% Calm Calm 3.0 mph4.8 kmh 29.99 in1015.6 mb 0.00 in0.0 mm 0.00 in0.0 mm 0.00 in0.0 mm
05:50 AM 46.6°F8.1°C 44.1°F6.7°C 91% Calm Calm 1.0 mph1.6 kmh 29.99 in1015.6 mb 0.00 in0.0 mm 0.00 in0.0 mm 0.00 in0.0 mm
05:55 AM 46.5°F8.1°C 43.7°F6.5°C 90% Calm Calm 1.0 mph1.6 kmh 29.99 in1015.6 mb 0.00 in0.0 mm 0.00 in0.0 mm 0.00 in0.0 mm
06:00 AM 46.1°F7.8°C 43.3°F6.3°C 90% Calm Calm -- 29.99 in1015.6 mb 0.00 in0.0 mm 0.00 in0.0 mm 0.00 in0.0 mm
06:05 AM 45.9°F7.7°C 43.1°F6.2°C 90% Calm Calm -- 29.99 in1015.6 mb 0.00 in0.0 mm 0.00 in0.0 mm 0.00 in0.0 mm
06:10 AM 45.9°F7.7°C 43.1°F6.2°C 90% Calm Calm -- 29.99 in1015.6 mb 0.00 in0.0 mm 0.00 in0.0 mm 0.00 in0.0 mm
06:15 AM 45.9°F7.7°C 43.4°F6.3°C 91% Calm Calm -- 29.99 in1015.6 mb 0.00 in0.0 mm 0.00 in0.0 mm 0.00 in0.0 mm
06:20 AM 46.0°F7.8°C 43.5°F6.4°C 91% Calm Calm -- 29.99 in1015.6 mb 0.00 in0.0 mm 0.00 in0.0 mm 0.00 in0.0 mm
06:25 AM 46.1°F7.8°C 43.3°F6.3°C 90% Calm Calm -- 29.99 in1015.6 mb 0.00 in0.0 mm 0.00 in0.0 mm 0.00 in0.0 mm
06:30 AM 46.2°F7.9°C 43.4°F6.3°C 90% Calm Calm -- 29.99 in1015.6 mb 0.00 in0.0 mm 0.00 in0.0 mm 0.00 in0.0 mm
06:35 AM 46.4°F8.0°C 43.6°F6.4°C 90% Calm Calm -- 29.99 in1015.6 mb 0.00 in0.0 mm 0.00 in0.0 mm 0.00 in0.0 mm
06:40 AM 46.4°F8.0°C 43.6°F6.4°C 90% Calm Calm -- 29.99 in1015.6 mb 0.00 in0.0 mm 0.00 in0.0 mm 0.00 in0.0 mm
06:45 AM 46.4°F8.0°C 43.6°F6.4°C 90% 3.0 mph SE4.8 kmh SE 3.0 mph4.8 kmh 29.99 in1015.6 mb 0.00 in0.0 mm 0.00 in0.0 mm 0.00 in0.0 mm
06:50 AM 46.2°F7.9°C 43.1°F6.2°C 89% 2.0 mph ESE3.2 kmh ESE 3.0 mph4.8 kmh 29.99 in1015.6 mb 0.00 in0.0 mm 0.00 in0.0 mm 0.00 in0.0 mm
06:55 AM 46.1°F7.8°C 43.3°F6.3°C 90% 1.0 mph ESE1.6 kmh ESE 3.0 mph4.8 kmh 29.99 in1015.6 mb 0.00 in0.0 mm 0.00 in0.0 mm 0.00 in0.0 mm
07:00 AM 46.1°F7.8°C 43.3°F6.3°C 90% Calm Calm 2.0 mph3.2 kmh 29.99 in1015.6 mb 0.00 in0.0 mm 0.00 in0.0 mm 0.00 in0.0 mm
07:05 AM 46.2°F7.9°C 43.4°F6.3°C 90% Calm Calm 1.0 mph1.6 kmh 30.00 in1015.9 mb 0.00 in0.0 mm 0.00 in0.0 mm 0.00 in0.0 mm
07:10 AM 46.4°F8.0°C 43.9°F6.6°C 91% Calm Calm -- 30.00 in1015.9 mb 0.00 in0.0 mm 0.00 in0.0 mm 0.00 in0.0 mm
07:15 AM 46.7°F8.2°C 44.2°F6.8°C 91% 2.0 mph ESE3.2 kmh ESE 2.0 mph3.2 kmh 30.00 in1015.9 mb 0.00 in0.0 mm 0.00 in0.0 mm 0.00 in0.0 mm
07:20 AM 46.9°F8.3°C 44.4°F6.9°C 91% 1.0 mph ESE1.6 kmh ESE 3.0 mph4.8 kmh 29.99 in1015.6 mb 0.00 in0.0 mm 0.00 in0.0 mm 0.00 in0.0 mm
07:25 AM 47.1°F8.4°C 44.6°F7.0°C 91% Calm Calm 2.0 mph3.2 kmh 29.99 in1015.6 mb 0.00 in0.0 mm 0.00 in0.0 mm 0.00 in0.0 mm
07:30 AM 47.3°F8.5°C 44.8°F7.1°C 91% 1.0 mph SE1.6 kmh SE 2.0 mph3.2 kmh 29.99 in1015.6 mb 0.00 in0.0 mm 0.00 in0.0 mm 0.00 in0.0 mm
07:35 AM 47.6°F8.7°C 45.1°F7.3°C 91% Calm Calm 2.0 mph3.2 kmh 29.99 in1015.6 mb 0.00 in0.0 mm 0.00 in0.0 mm 0.00 in0.0 mm
07:40 AM 47.8°F8.8°C 45.3°F7.4°C 91% Calm Calm 2.0 mph3.2 kmh 29.99 in1015.6 mb 0.00 in0.0 mm 0.00 in0.0 mm 0.00 in0.0 mm
07:45 AM 48.1°F8.9°C 45.5°F7.5°C 91% 2.0 mph SSE3.2 kmh SSE 3.0 mph4.8 kmh 29.99 in1015.6 mb 0.00 in0.0 mm 0.00 in0.0 mm 0.00 in0.0 mm
07:50 AM 48.4°F9.1°C 45.8°F7.7°C 91% 1.0 mph SSE1.6 kmh SSE 3.0 mph4.8 kmh 29.99 in1015.6 mb 0.00 in0.0 mm 0.00 in0.0 mm 0.00 in0.0 mm
07:55 AM 48.6°F9.2°C 45.8°F7.7°C 90% Calm Calm 1.0 mph1.6 kmh 29.99 in1015.6 mb 0.00 in0.0 mm 0.00 in0.0 mm 0.00 in0.0 mm
08:00 AM 48.9°F9.4°C 46.0°F7.8°C 90% 1.0 mph SSE1.6 kmh SSE 1.0 mph1.6 kmh 29.99 in1015.6 mb 0.00 in0.0 mm 0.00 in0.0 mm 0.00 in0.0 mm
08:05 AM 49.3°F9.6°C 46.4°F8.0°C 90% Calm Calm 2.0 mph3.2 kmh 29.99 in1015.6 mb 0.00 in0.0 mm 0.00 in0.0 mm 0.00 in0.0 mm
08:10 AM 49.8°F9.9°C 46.6°F8.1°C 89% Calm Calm 3.0 mph4.8 kmh 29.99 in1015.6 mb 0.00 in0.0 mm 0.00 in0.0 mm 0.00 in0.0 mm
08:15 AM 50.3°F10.2°C 47.1°F8.4°C 89% 1.0 mph SSE1.6 kmh SSE 2.0 mph3.2 kmh 29.99 in1015.6 mb 0.00 in0.0 mm 0.00 in0.0 mm 0.00 in0.0 mm
08:20 AM 50.7°F10.4°C 47.5°F8.6°C 89% Calm Calm 2.0 mph3.2 kmh 29.99 in1015.6 mb 0.00 in0.0 mm 0.00 in0.0 mm 0.00 in0.0 mm
08:25 AM 51.2°F10.7°C 48.0°F8.9°C 89% 2.0 mph SE3.2 kmh SE 3.0 mph4.8 kmh 29.99 in1015.6 mb 0.00 in0.0 mm 0.00 in0.0 mm 0.00 in0.0 mm
08:30 AM 51.7°F10.9°C 48.2°F9.0°C 88% 1.0 mph SE1.6 kmh SE 3.0 mph4.8 kmh 29.98 in1015.2 mb 0.00 in0.0 mm 0.00 in0.0 mm 0.00 in0.0 mm
08:35 AM 52.2°F11.2°C 48.7°F9.3°C 88% Calm Calm 2.0 mph3.2 kmh 29.98 in1015.2 mb 0.00 in0.0 mm 0.00 in0.0 mm 0.00 in0.0 mm
08:40 AM 52.8°F11.6°C 49.0°F9.4°C 87% 2.0 mph SE3.2 kmh SE 3.0 mph4.8 kmh 29.98 in1015.2 mb 0.00 in0.0 mm 0.00 in0.0 mm 0.00 in0.0 mm
08:45 AM 53.3°F11.8°C 48.9°F9.4°C 85% 1.0 mph SE1.6 kmh SE 4.0 mph6.4 kmh 29.98 in1015.2 mb 0.00 in0.0 mm 0.00 in0.0 mm 0.00 in0.0 mm
08:50 AM 54.0°F12.2°C 49.2°F9.6°C 84% 1.0 mph SE1.6 kmh SE 3.0 mph4.8 kmh 29.98 in1015.2 mb 0.00 in0.0 mm 0.00 in0.0 mm 0.00 in0.0 mm
08:55 AM 54.8°F12.7°C 49.7°F9.8°C 83% 1.0 mph SE1.6 kmh SE 3.0 mph4.8 kmh 29.97 in1014.9 mb 0.00 in0.0 mm 0.00 in0.0 mm 0.00 in0.0 mm
09:00 AM 55.3°F12.9°C 49.8°F9.9°C 82% 1.0 mph ESE1.6 kmh ESE 3.0 mph4.8 kmh 29.97 in1014.9 mb 0.00 in0.0 mm 0.00 in0.0 mm 0.00 in0.0 mm
09:05 AM 55.8°F13.2°C 50.0°F10.0°C 81% 1.0 mph ESE1.6 kmh ESE 3.0 mph4.8 kmh 29.97 in1014.9 mb 0.00 in0.0 mm 0.00 in0.0 mm 0.00 in0.0 mm
09:10 AM 56.5°F13.6°C 50.0°F10.0°C 79% 1.0 mph SSE1.6 kmh SSE 4.0 mph6.4 kmh 29.97 in1014.9 mb 0.00 in0.0 mm 0.00 in0.0 mm 0.00 in0.0 mm
09:15 AM 57.2°F14.0°C 50.4°F10.2°C 78% 3.0 mph ESE4.8 kmh ESE 4.0 mph6.4 kmh 29.97 in1014.9 mb 0.00 in0.0 mm 0.00 in0.0 mm 0.00 in0.0 mm
09:20 AM 57.7°F14.3°C 50.5°F10.3°C 77% 1.0 mph SE1.6 kmh SE 3.0 mph4.8 kmh 29.97 in1014.9 mb 0.00 in0.0 mm 0.00 in0.0 mm 0.00 in0.0 mm
09:25 AM 58.1°F14.5°C 50.5°F10.3°C 76% 1.0 mph ESE1.6 kmh ESE 3.0 mph4.8 kmh 29.97 in1014.9 mb 0.00 in0.0 mm 0.00 in0.0 mm 0.00 in0.0 mm
09:30 AM 58.6°F14.8°C 51.0°F10.6°C 76% Calm Calm 5.0 mph8.0 kmh 29.96 in1014.6 mb 0.00 in0.0 mm 0.00 in0.0 mm 0.00 in0.0 mm
09:35 AM 58.9°F14.9°C 51.3°F10.7°C 76% 1.0 mph SE1.6 kmh SE 2.0 mph3.2 kmh 29.97 in1014.9 mb 0.00 in0.0 mm 0.00 in0.0 mm 0.00 in0.0 mm
09:40 AM 59.4°F15.2°C 51.4°F10.8°C 75% 2.0 mph ESE3.2 kmh ESE 4.0 mph6.4 kmh 29.96 in1014.6 mb 0.00 in0.0 mm 0.00 in0.0 mm 0.00 in0.0 mm
09:45 AM 60.0°F15.6°C 51.6°F10.9°C 74% 3.0 mph ESE4.8 kmh ESE 5.0 mph8.0 kmh 29.96 in1014.6 mb 0.00 in0.0 mm 0.00 in0.0 mm 0.00 in0.0 mm
09:50 AM 60.5°F15.8°C 51.7°F10.9°C 73% 3.0 mph ESE4.8 kmh ESE 5.0 mph8.0 kmh 29.96 in1014.6 mb 0.00 in0.0 mm 0.00 in0.0 mm 0.00 in0.0 mm
09:55 AM 60.9°F16.1°C 51.8°F11.0°C 72% 4.0 mph E6.4 kmh E 5.0 mph8.0 kmh 29.96 in1014.6 mb 0.00 in0.0 mm 0.00 in0.0 mm 0.00 in0.0 mm
10:00 AM 61.5°F16.4°C 52.0°F11.1°C 71% 1.0 mph SE1.6 kmh SE 6.0 mph9.7 kmh 29.96 in1014.6 mb 0.00 in0.0 mm 0.00 in0.0 mm 0.00 in0.0 mm
10:05 AM 61.9°F16.6°C 52.3°F11.3°C 71% 3.0 mph ESE4.8 kmh ESE 5.0 mph8.0 kmh 29.96 in1014.6 mb 0.00 in0.0 mm 0.00 in0.0 mm 0.00 in0.0 mm
10:10 AM 62.4°F16.9°C 52.4°F11.3°C 70% 1.0 mph E1.6 kmh E 5.0 mph8.0 kmh 29.95 in1014.2 mb 0.00 in0.0 mm 0.00 in0.0 mm 0.00 in0.0 mm
10:15 AM 62.8°F17.1°C 52.4°F11.3°C 69% 1.0 mph ESE1.6 kmh ESE 4.0 mph6.4 kmh 29.95 in1014.2 mb 0.00 in0.0 mm 0.00 in0.0 mm 0.00 in0.0 mm
10:20 AM 63.1°F17.3°C 52.3°F11.3°C 68% Calm Calm 2.0 mph3.2 kmh 29.95 in1014.2 mb 0.00 in0.0 mm 0.00 in0.0 mm 0.00 in0.0 mm
10:25 AM 63.6°F17.6°C 52.8°F11.6°C 68% Calm Calm 3.0 mph4.8 kmh 29.94 in1013.9 mb 0.00 in0.0 mm 0.00 in0.0 mm 0.00 in0.0 mm
10:30 AM 64.1°F17.8°C 52.5°F11.4°C 66% 1.0 mph ENE1.6 kmh ENE 4.0 mph6.4 kmh 29.94 in1013.9 mb 0.00 in0.0 mm 0.00 in0.0 mm 0.00 in0.0 mm
10:35 AM 64.5°F18.1°C 52.0°F11.1°C 64% 1.0 mph NE1.6 kmh NE 3.0 mph4.8 kmh 29.94 in1013.9 mb 0.00 in0.0 mm 0.00 in0.0 mm 0.00 in0.0 mm
10:40 AM 65.3°F18.5°C 51.9°F11.1°C 62% Calm Calm 3.0 mph4.8 kmh 29.94 in1013.9 mb 0.00 in0.0 mm 0.00 in0.0 mm 0.00 in0.0 mm
10:45 AM 66.3°F19.1°C 51.5°F10.8°C 59% 2.0 mph ENE3.2 kmh ENE 4.0 mph6.4 kmh 29.94 in1013.9 mb 0.00 in0.0 mm 0.00 in0.0 mm 0.00 in0.0 mm
10:50 AM 66.8°F19.3°C 51.0°F10.6°C 57% 1.0 mph E1.6 kmh E 4.0 mph6.4 kmh 29.93 in1013.5 mb 0.00 in0.0 mm 0.00 in0.0 mm 0.00 in0.0 mm
10:55 AM 67.5°F19.7°C 48.7°F9.3°C 51% 3.0 mph SE4.8 kmh SE 6.0 mph9.7 kmh 29.93 in1013.5 mb 0.00 in0.0 mm 0.00 in0.0 mm 0.00 in0.0 mm
11:00 AM 68.1°F20.1°C 49.2°F9.6°C 51% 1.0 mph SE1.6 kmh SE 6.0 mph9.7 kmh 29.93 in1013.5 mb 0.00 in0.0 mm 0.00 in0.0 mm 0.00 in0.0 mm
11:05 AM 68.5°F20.3°C 48.5°F9.2°C 49% 4.0 mph SE6.4 kmh SE 6.0 mph9.7 kmh 29.93 in1013.5 mb 0.00 in0.0 mm 0.00 in0.0 mm 0.00 in0.0 mm
11:10 AM 68.8°F20.4°C 49.3°F9.6°C 50% Calm Calm 4.0 mph6.4 kmh 29.93 in1013.5 mb 0.00 in0.0 mm 0.00 in0.0 mm 0.00 in0.0 mm
11:15 AM 69.6°F20.9°C 50.1°F10.1°C 50% 3.0 mph ESE4.8 kmh ESE 5.0 mph8.0 kmh 29.93 in1013.5 mb 0.00 in0.0 mm 0.00 in0.0 mm 0.00 in0.0 mm
11:20 AM 70.2°F21.2°C 49.5°F9.7°C 48% 4.0 mph ESE6.4 kmh ESE 6.0 mph9.7 kmh 29.92 in1013.2 mb 0.00 in0.0 mm 0.00 in0.0 mm 0.00 in0.0 mm
11:25 AM 70.4°F21.3°C 48.6°F9.2°C 46% 5.0 mph E8.0 kmh E 7.0 mph11.3 kmh 29.92 in1013.2 mb 0.00 in0.0 mm 0.00 in0.0 mm 0.00 in0.0 mm
11:30 AM 70.6°F21.4°C 49.3°F9.6°C 47% 1.0 mph ESE1.6 kmh ESE 6.0 mph9.7 kmh 29.92 in1013.2 mb 0.00 in0.0 mm 0.00 in0.0 mm 0.00 in0.0 mm
11:35 AM 71.2°F21.8°C 49.9°F9.9°C 47% 4.0 mph ESE6.4 kmh ESE 6.0 mph9.7 kmh 29.92 in1013.2 mb 0.00 in0.0 mm 0.00 in0.0 mm 0.00 in0.0 mm
11:40 AM 71.3°F21.8°C 48.2°F9.0°C 44% 5.0 mph SE8.0 kmh SE 9.0 mph14.5 kmh 29.92 in1013.2 mb 0.00 in0.0 mm 0.00 in0.0 mm 0.00 in0.0 mm
11:45 AM 71.7°F22.1°C 49.8°F9.9°C 46% 3.0 mph ESE4.8 kmh ESE 7.0 mph11.3 kmh 29.91 in1012.9 mb 0.00 in0.0 mm 0.00 in0.0 mm 0.00 in0.0 mm
11:50 AM 71.9°F22.2°C 49.3°F9.6°C 45% 6.0 mph E9.7 kmh E 8.0 mph12.9 kmh 29.91 in1012.9 mb 0.00 in0.0 mm 0.00 in0.0 mm 0.00 in0.0 mm
11:55 AM 72.1°F22.3°C 49.5°F9.7°C 45% 6.0 mph E9.7 kmh E 8.0 mph12.9 kmh 29.91 in1012.9 mb 0.00 in0.0 mm 0.00 in0.0 mm 0.00 in0.0 mm
12:00 PM 72.5°F22.5°C 51.6°F10.9°C 48% Calm Calm 7.0 mph11.3 kmh 29.91 in1012.9 mb 0.00 in0.0 mm 0.00 in0.0 mm 0.00 in0.0 mm
12:05 PM 73.2°F22.9°C 49.3°F9.6°C 43% 7.0 mph SE11.3 kmh SE 7.0 mph11.3 kmh 29.90 in1012.5 mb 0.00 in0.0 mm 0.00 in0.0 mm 0.00 in0.0 mm
12:10 PM 73.3°F22.9°C 48.8°F9.3°C 42% 4.0 mph SSE6.4 kmh SSE 11.0 mph17.7 kmh 29.90 in1012.5 mb 0.00 in0.0 mm 0.00 in0.0 mm 0.00 in0.0 mm
12:15 PM 73.4°F23.0°C 48.2°F9.0°C 41% 11.0 mph ESE17.7 kmh ESE 10.0 mph16.1 kmh 29.90 in1012.5 mb 0.00 in0.0 mm 0.00 in0.0 mm 0.00 in0.0 mm
12:20 PM 73.7°F23.2°C 48.5°F9.2°C 41% 6.0 mph ESE9.7 kmh ESE 11.0 mph17.7 kmh 29.90 in1012.5 mb 0.00 in0.0 mm 0.00 in0.0 mm 0.00 in0.0 mm
12:25 PM 73.5°F23.1°C 48.3°F9.1°C 41% 6.0 mph SE9.7 kmh SE 12.0 mph19.3 kmh 29.90 in1012.5 mb 0.00 in0.0 mm 0.00 in0.0 mm 0.00 in0.0 mm
12:30 PM 73.6°F23.1°C 49.7°F9.8°C 43% 2.0 mph ESE3.2 kmh ESE 12.0 mph19.3 kmh 29.89 in1012.2 mb 0.00 in0.0 mm 0.00 in0.0 mm 0.00 in0.0 mm
12:35 PM 74.1°F23.4°C 50.1°F10.1°C 43% Calm Calm 8.0 mph12.9 kmh 29.89 in1012.2 mb 0.00 in0.0 mm 0.00 in0.0 mm 0.00 in0.0 mm
12:40 PM 74.6°F23.7°C 49.9°F9.9°C 42% 7.0 mph SE11.3 kmh SE 11.0 mph17.7 kmh 29.89 in1012.2 mb 0.00 in0.0 mm 0.00 in0.0 mm 0.00 in0.0 mm
12:45 PM 74.9°F23.8°C 49.5°F9.7°C 41% 5.0 mph ESE8.0 kmh ESE 9.0 mph14.5 kmh 29.88 in1011.9 mb 0.00 in0.0 mm 0.00 in0.0 mm 0.00 in0.0 mm
12:50 PM 75.0°F23.9°C 49.0°F9.4°C 40% 4.0 mph SE6.4 kmh SE 11.0 mph17.7 kmh 29.88 in1011.9 mb 0.00 in0.0 mm 0.00 in0.0 mm 0.00 in0.0 mm
12:55 PM 75.1°F23.9°C 49.1°F9.5°C 40% 6.0 mph E9.7 kmh E 11.0 mph17.7 kmh 29.88 in1011.9 mb 0.00 in0.0 mm 0.00 in0.0 mm 0.00 in0.0 mm
01:00 PM 74.9°F23.8°C 48.2°F9.0°C 39% 4.0 mph E6.4 kmh E 10.0 mph16.1 kmh 29.88 in1011.9 mb 0.00 in0.0 mm 0.00 in0.0 mm 0.00 in0.0 mm
01:05 PM 74.7°F23.7°C 48.7°F9.3°C 40% 5.0 mph ESE8.0 kmh ESE 11.0 mph17.7 kmh 29.88 in1011.9 mb 0.00 in0.0 mm 0.00 in0.0 mm 0.00 in0.0 mm
01:10 PM 75.0°F23.9°C 50.3°F10.2°C 42% 5.0 mph E8.0 kmh E 11.0 mph17.7 kmh 29.88 in1011.9 mb 0.00 in0.0 mm 0.00 in0.0 mm 0.00 in0.0 mm
01:15 PM 75.1°F23.9°C 50.4°F10.2°C 42% 5.0 mph ESE8.0 kmh ESE 11.0 mph17.7 kmh 29.88 in1011.9 mb 0.00 in0.0 mm 0.00 in0.0 mm 0.00 in0.0 mm
01:20 PM 75.3°F24.1°C 51.2°F10.7°C 43% 2.0 mph E3.2 kmh E 7.0 mph11.3 kmh 29.88 in1011.9 mb 0.00 in0.0 mm 0.00 in0.0 mm 0.00 in0.0 mm
01:25 PM 75.3°F24.1°C 51.8°F11.0°C 44% 1.0 mph E1.6 kmh E 7.0 mph11.3 kmh 29.87 in1011.5 mb 0.00 in0.0 mm 0.00 in0.0 mm 0.00 in0.0 mm
01:30 PM 75.4°F24.1°C 51.9°F11.1°C 44% 6.0 mph E9.7 kmh E 11.0 mph17.7 kmh 29.87 in1011.5 mb 0.00 in0.0 mm 0.00 in0.0 mm 0.00 in0.0 mm
01:35 PM 75.7°F24.3°C 50.3°F10.2°C 41% 3.0 mph ENE4.8 kmh ENE 11.0 mph17.7 kmh 29.87 in1011.5 mb 0.00 in0.0 mm 0.00 in0.0 mm 0.00 in0.0 mm
01:40 PM 75.8°F24.3°C 49.7°F9.8°C 40% 6.0 mph E9.7 kmh E 10.0 mph16.1 kmh 29.86 in1011.2 mb 0.00 in0.0 mm 0.00 in0.0 mm 0.00 in0.0 mm
01:45 PM 75.8°F24.3°C 51.0°F10.6°C 42% 4.0 mph ESE6.4 kmh ESE 10.0 mph16.1 kmh 29.86 in1011.2 mb 0.00 in0.0 mm 0.00 in0.0 mm 0.00 in0.0 mm
01:50 PM 76.0°F24.4°C 51.2°F10.7°C 42% 2.0 mph E3.2 kmh E 11.0 mph17.7 kmh 29.86 in1011.2 mb 0.00 in0.0 mm 0.00 in0.0 mm 0.00 in0.0 mm
01:55 PM 75.9°F24.4°C 51.1°F10.6°C 42% 7.0 mph ESE11.3 kmh ESE 10.0 mph16.1 kmh 29.86 in1011.2 mb 0.00 in0.0 mm 0.00 in0.0 mm 0.00 in0.0 mm
02:00 PM 75.8°F24.3°C 52.3°F11.3°C 44% 6.0 mph E9.7 kmh E 10.0 mph16.1 kmh 29.86 in1011.2 mb 0.00 in0.0 mm 0.00 in0.0 mm 0.00 in0.0 mm
02:05 PM 75.9°F24.4°C 51.7°F10.9°C 43% 5.0 mph E8.0 kmh E 9.0 mph14.5 kmh 29.86 in1011.2 mb 0.00 in0.0 mm 0.00 in0.0 mm 0.00 in0.0 mm
02:10 PM 76.2°F24.6°C 53.2°F11.8°C 45% 4.0 mph ESE6.4 kmh ESE 6.0 mph9.7 kmh 29.86 in1011.2 mb 0.00 in0.0 mm 0.00 in0.0 mm 0.00 in0.0 mm
02:15 PM 76.3°F24.6°C 52.1°F11.2°C 43% 5.0 mph E8.0 kmh E 8.0 mph12.9 kmh 29.86 in1011.2 mb 0.00 in0.0 mm 0.00 in0.0 mm 0.00 in0.0 mm
02:20 PM 76.2°F24.6°C 52.6°F11.4°C 44% 4.0 mph NE6.4 kmh NE 9.0 mph14.5 kmh 29.86 in1011.2 mb 0.00 in0.0 mm 0.00 in0.0 mm 0.00 in0.0 mm
02:25 PM 76.1°F24.5°C 51.3°F10.7°C 42% 5.0 mph E8.0 kmh E 11.0 mph17.7 kmh 29.86 in1011.2 mb 0.00 in0.0 mm 0.00 in0.0 mm 0.00 in0.0 mm
02:30 PM 76.1°F24.5°C 51.9°F11.1°C 43% 2.0 mph ESE3.2 kmh ESE 11.0 mph17.7 kmh 29.85 in1010.8 mb 0.00 in0.0 mm 0.00 in0.0 mm 0.00 in0.0 mm
02:35 PM 76.2°F24.6°C 50.7°F10.4°C 41% 5.0 mph E8.0 kmh E 12.0 mph19.3 kmh 29.85 in1010.8 mb 0.00 in0.0 mm 0.00 in0.0 mm 0.00 in0.0 mm
02:40 PM 76.2°F24.6°C 52.0°F11.1°C 43% 1.0 mph E1.6 kmh E 11.0 mph17.7 kmh 29.85 in1010.8 mb 0.00 in0.0 mm 0.00 in0.0 mm 0.00 in0.0 mm
02:45 PM 76.2°F24.6°C 51.4°F10.8°C 42% 7.0 mph E11.3 kmh E 10.0 mph16.1 kmh 29.85 in1010.8 mb 0.00 in0.0 mm 0.00 in0.0 mm 0.00 in0.0 mm
02:50 PM 76.2°F24.6°C 51.4°F10.8°C 42% 1.0 mph E1.6 kmh E 12.0 mph19.3 kmh 29.85 in1010.8 mb 0.00 in0.0 mm 0.00 in0.0 mm 0.00 in0.0 mm
02:55 PM 76.0°F24.4°C 51.2°F10.7°C 42% 7.0 mph ESE11.3 kmh ESE 12.0 mph19.3 kmh 29.85 in1010.8 mb 0.00 in0.0 mm 0.00 in0.0 mm 0.00 in0.0 mm
03:00 PM 76.0°F24.4°C 51.8°F11.0°C 43% 5.0 mph ESE8.0 kmh ESE 9.0 mph14.5 kmh 29.85 in1010.8 mb 0.00 in0.0 mm 0.00 in0.0 mm 0.00 in0.0 mm
03:05 PM 75.9°F24.4°C 53.0°F11.7°C 45% 3.0 mph E4.8 kmh E 7.0 mph11.3 kmh 29.85 in1010.8 mb 0.00 in0.0 mm 0.00 in0.0 mm 0.00 in0.0 mm
03:10 PM 75.5°F24.2°C 53.8°F12.1°C 47% 9.0 mph NE14.5 kmh NE 11.0 mph17.7 kmh 29.86 in1011.2 mb 0.00 in0.0 mm 0.00 in0.0 mm 0.00 in0.0 mm
03:15 PM 75.3°F24.1°C 53.6°F12.0°C 47% 10.0 mph E16.1 kmh E 10.0 mph16.1 kmh 29.85 in1010.8 mb 0.00 in0.0 mm 0.00 in0.0 mm 0.00 in0.0 mm
03:20 PM 75.1°F23.9°C 54.0°F12.2°C 48% 5.0 mph ESE8.0 kmh ESE 9.0 mph14.5 kmh 29.85 in1010.8 mb 0.00 in0.0 mm 0.00 in0.0 mm 0.00 in0.0 mm
03:25 PM 74.9°F23.8°C 54.4°F12.4°C 49% 7.0 mph E11.3 kmh E 10.0 mph16.1 kmh 29.85 in1010.8 mb 0.00 in0.0 mm 0.00 in0.0 mm 0.00 in0.0 mm
03:30 PM 74.7°F23.7°C 54.2°F12.3°C 49% 8.0 mph NE12.9 kmh NE 10.0 mph16.1 kmh 29.85 in1010.8 mb 0.00 in0.0 mm 0.00 in0.0 mm 0.00 in0.0 mm
03:35 PM 74.5°F23.6°C 55.1°F12.8°C 51% 5.0 mph E8.0 kmh E 7.0 mph11.3 kmh 29.85 in1010.8 mb 0.00 in0.0 mm 0.00 in0.0 mm 0.00 in0.0 mm
03:40 PM 74.3°F23.5°C 54.9°F12.7°C 51% 5.0 mph ENE8.0 kmh ENE 10.0 mph16.1 kmh 29.85 in1010.8 mb 0.00 in0.0 mm 0.00 in0.0 mm 0.00 in0.0 mm
03:45 PM 74.1°F23.4°C 55.8°F13.2°C 53% 6.0 mph ENE9.7 kmh ENE 9.0 mph14.5 kmh 29.85 in1010.8 mb 0.00 in0.0 mm 0.00 in0.0 mm 0.00 in0.0 mm
03:50 PM 74.0°F23.3°C 55.2°F12.9°C 52% 4.0 mph ESE6.4 kmh ESE 9.0 mph14.5 kmh 29.85 in1010.8 mb 0.00 in0.0 mm 0.00 in0.0 mm 0.00 in0.0 mm
03:55 PM 73.9°F23.3°C 55.1°F12.8°C 52% 6.0 mph E9.7 kmh E 9.0 mph14.5 kmh 29.85 in1010.8 mb 0.00 in0.0 mm 0.00 in0.0 mm 0.00 in0.0 mm
04:00 PM 73.6°F23.1°C 54.8°F12.7°C 52% 4.0 mph E6.4 kmh E 10.0 mph16.1 kmh 29.85 in1010.8 mb 0.00 in0.0 mm 0.00 in0.0 mm 0.00 in0.0 mm
04:05 PM 73.3°F22.9°C 55.1°F12.8°C 53% 7.0 mph ESE11.3 kmh ESE 11.0 mph17.7 kmh 29.85 in1010.8 mb 0.00 in0.0 mm 0.00 in0.0 mm 0.00 in0.0 mm
04:10 PM 73.0°F22.8°C 54.8°F12.7°C 53% 8.0 mph E12.9 kmh E 10.0 mph16.1 kmh 29.85 in1010.8 mb 0.00 in0.0 mm 0.00 in0.0 mm 0.00 in0.0 mm
04:15 PM 72.6°F22.6°C 54.4°F12.4°C 53% 5.0 mph E8.0 kmh E 11.0 mph17.7 kmh 29.85 in1010.8 mb 0.00 in0.0 mm 0.00 in0.0 mm 0.00 in0.0 mm
04:20 PM 72.2°F22.3°C 54.6°F12.6°C 54% 6.0 mph ESE9.7 kmh ESE 10.0 mph16.1 kmh 29.86 in1011.2 mb 0.00 in0.0 mm 0.00 in0.0 mm 0.00 in0.0 mm
04:25 PM 71.9°F22.2°C 54.8°F12.7°C 55% 3.0 mph E4.8 kmh E 13.0 mph20.9 kmh 29.86 in1011.2 mb 0.00 in0.0 mm 0.00 in0.0 mm 0.00 in0.0 mm
04:30 PM 71.5°F21.9°C 54.9°F12.7°C 56% 3.0 mph E4.8 kmh E 9.0 mph14.5 kmh 29.86 in1011.2 mb 0.00 in0.0 mm 0.00 in0.0 mm 0.00 in0.0 mm
04:35 PM 71.1°F21.7°C 54.5°F12.5°C 56% 6.0 mph ESE9.7 kmh ESE 9.0 mph14.5 kmh 29.86 in1011.2 mb 0.00 in0.0 mm 0.00 in0.0 mm 0.00 in0.0 mm
04:40 PM 70.6°F21.4°C 54.6°F12.6°C 57% 6.0 mph ENE9.7 kmh ENE 10.0 mph16.1 kmh 29.86 in1011.2 mb 0.00 in0.0 mm 0.00 in0.0 mm 0.00 in0.0 mm
04:45 PM 70.2°F21.2°C 54.7°F12.6°C 58% 3.0 mph E4.8 kmh E 9.0 mph14.5 kmh 29.86 in1011.2 mb 0.00 in0.0 mm 0.00 in0.0 mm 0.00 in0.0 mm
04:50 PM 69.7°F20.9°C 54.2°F12.3°C 58% 5.0 mph ENE8.0 kmh ENE 10.0 mph16.1 kmh 29.86 in1011.2 mb 0.00 in0.0 mm 0.00 in0.0 mm 0.00 in0.0 mm
04:55 PM 69.4°F20.8°C 54.4°F12.4°C 59% 6.0 mph E9.7 kmh E 10.0 mph16.1 kmh 29.86 in1011.2 mb 0.00 in0.0 mm 0.00 in0.0 mm 0.00 in0.0 mm
05:00 PM 69.0°F20.6°C 54.5°F12.5°C 60% 4.0 mph E6.4 kmh E 7.0 mph11.3 kmh 29.86 in1011.2 mb 0.00 in0.0 mm 0.00 in0.0 mm 0.00 in0.0 mm
05:05 PM 68.6°F20.3°C 54.1°F12.3°C 60% 6.0 mph ESE9.7 kmh ESE 9.0 mph14.5 kmh 29.86 in1011.2 mb 0.00 in0.0 mm 0.00 in0.0 mm 0.00 in0.0 mm
05:10 PM 68.3°F20.2°C 54.3°F12.4°C 61% 7.0 mph E11.3 kmh E 9.0 mph14.5 kmh 29.87 in1011.5 mb 0.00 in0.0 mm 0.00 in0.0 mm 0.00 in0.0 mm
05:15 PM 68.0°F20.0°C 54.0°F12.2°C 61% 5.0 mph E8.0 kmh E 10.0 mph16.1 kmh 29.86 in1011.2 mb 0.00 in0.0 mm 0.00 in0.0 mm 0.00 in0.0 mm
05:20 PM 67.7°F19.8°C 53.7°F12.1°C 61% 5.0 mph E8.0 kmh E 10.0 mph16.1 kmh 29.87 in1011.5 mb 0.00 in0.0 mm 0.00 in0.0 mm 0.00 in0.0 mm
05:25 PM 67.4°F19.7°C 53.9°F12.2°C 62% 6.0 mph ESE9.7 kmh ESE 11.0 mph17.7 kmh 29.87 in1011.5 mb 0.00 in0.0 mm 0.00 in0.0 mm 0.00 in0.0 mm
05:30 PM 67.0°F19.4°C 53.9°F12.2°C 63% 3.0 mph E4.8 kmh E 7.0 mph11.3 kmh 29.87 in1011.5 mb 0.00 in0.0 mm 0.00 in0.0 mm 0.00 in0.0 mm
05:35 PM 66.6°F19.2°C 53.6°F12.0°C 63% 3.0 mph E4.8 kmh E 7.0 mph11.3 kmh 29.87 in1011.5 mb 0.00 in0.0 mm 0.00 in0.0 mm 0.00 in0.0 mm
05:40 PM 66.2°F19.0°C 53.6°F12.0°C 64% 5.0 mph E8.0 kmh E 9.0 mph14.5 kmh 29.87 in1011.5 mb 0.00 in0.0 mm 0.00 in0.0 mm 0.00 in0.0 mm
05:45 PM 65.8°F18.8°C 53.2°F11.8°C 64% 4.0 mph SE6.4 kmh SE 9.0 mph14.5 kmh 29.87 in1011.5 mb 0.00 in0.0 mm 0.00 in0.0 mm 0.00 in0.0 mm
05:50 PM 65.6°F18.7°C 53.5°F11.9°C 65% 5.0 mph E8.0 kmh E 8.0 mph12.9 kmh 29.87 in1011.5 mb 0.00 in0.0 mm 0.00 in0.0 mm 0.00 in0.0 mm
05:55 PM 65.4°F18.6°C 53.3°F11.8°C 65% 9.0 mph ESE14.5 kmh ESE 9.0 mph14.5 kmh 29.87 in1011.5 mb 0.00 in0.0 mm 0.00 in0.0 mm 0.00 in0.0 mm
06:00 PM 65.2°F18.4°C 53.1°F11.7°C 65% 5.0 mph E8.0 kmh E 9.0 mph14.5 kmh 29.88 in1011.9 mb 0.00 in0.0 mm 0.00 in0.0 mm 0.00 in0.0 mm
06:05 PM 65.1°F18.4°C 53.0°F11.7°C 65% 4.0 mph E6.4 kmh E 7.0 mph11.3 kmh 29.88 in1011.9 mb 0.00 in0.0 mm 0.00 in0.0 mm 0.00 in0.0 mm
06:10 PM 64.9°F18.3°C 53.2°F11.8°C 66% 4.0 mph E6.4 kmh E 7.0 mph11.3 kmh 29.88 in1011.9 mb 0.00 in0.0 mm 0.00 in0.0 mm 0.00 in0.0 mm
06:15 PM 64.7°F18.2°C 53.0°F11.7°C 66% 6.0 mph E9.7 kmh E 6.0 mph9.7 kmh 29.88 in1011.9 mb 0.00 in0.0 mm 0.00 in0.0 mm 0.00 in0.0 mm
06:20 PM 64.4°F18.0°C 52.7°F11.5°C 66% 4.0 mph E6.4 kmh E 6.0 mph9.7 kmh 29.88 in1011.9 mb 0.00 in0.0 mm 0.00 in0.0 mm 0.00 in0.0 mm
06:25 PM 64.1°F17.8°C 52.9°F11.6°C 67% 6.0 mph E9.7 kmh E 7.0 mph11.3 kmh 29.88 in1011.9 mb 0.00 in0.0 mm 0.00 in0.0 mm 0.00 in0.0 mm
06:30 PM 64.1°F17.8°C 52.5°F11.4°C 66% 5.0 mph E8.0 kmh E 9.0 mph14.5 kmh 29.88 in1011.9 mb 0.00 in0.0 mm 0.00 in0.0 mm 0.00 in0.0 mm
06:35 PM 64.1°F17.8°C 52.9°F11.6°C 67% 3.0 mph E4.8 kmh E 7.0 mph11.3 kmh 29.88 in1011.9 mb 0.00 in0.0 mm 0.00 in0.0 mm 0.00 in0.0 mm
06:40 PM 63.9°F17.7°C 52.7°F11.5°C 67% 5.0 mph SE8.0 kmh SE 7.0 mph11.3 kmh 29.88 in1011.9 mb 0.00 in0.0 mm 0.00 in0.0 mm 0.00 in0.0 mm
06:45 PM 63.6°F17.6°C 52.4°F11.3°C 67% 3.0 mph SE4.8 kmh SE 6.0 mph9.7 kmh 29.88 in1011.9 mb 0.00 in0.0 mm 0.00 in0.0 mm 0.00 in0.0 mm
06:50 PM 63.4°F17.4°C 52.6°F11.4°C 68% 1.0 mph E1.6 kmh E 6.0 mph9.7 kmh 29.88 in1011.9 mb 0.00 in0.0 mm 0.00 in0.0 mm 0.00 in0.0 mm
06:55 PM 63.3°F17.4°C 52.5°F11.4°C 68% 2.0 mph SE3.2 kmh SE 7.0 mph11.3 kmh 29.88 in1011.9 mb 0.00 in0.0 mm 0.00 in0.0 mm 0.00 in0.0 mm
07:00 PM 63.2°F17.3°C 52.4°F11.3°C 68% 2.0 mph E3.2 kmh E 6.0 mph9.7 kmh 29.88 in1011.9 mb 0.00 in0.0 mm 0.00 in0.0 mm 0.00 in0.0 mm
07:05 PM 63.1°F17.3°C 52.3°F11.3°C 68% 2.0 mph SE3.2 kmh SE 7.0 mph11.3 kmh 29.87 in1011.5 mb 0.00 in0.0 mm 0.00 in0.0 mm 0.00 in0.0 mm
07:10 PM 62.9°F17.2°C 52.1°F11.2°C 68% 3.0 mph ESE4.8 kmh ESE 6.0 mph9.7 kmh 29.88 in1011.9 mb 0.00 in0.0 mm 0.00 in0.0 mm 0.00 in0.0 mm
07:15 PM 62.8°F17.1°C 52.0°F11.1°C 68% 4.0 mph SE6.4 kmh SE 7.0 mph11.3 kmh 29.88 in1011.9 mb 0.00 in0.0 mm 0.00 in0.0 mm 0.00 in0.0 mm
07:20 PM 62.6°F17.0°C 52.2°F11.2°C 69% 3.0 mph ESE4.8 kmh ESE 5.0 mph8.0 kmh 29.88 in1011.9 mb 0.00 in0.0 mm 0.00 in0.0 mm 0.00 in0.0 mm
07:25 PM 62.4°F16.9°C 52.0°F11.1°C 69% 5.0 mph E8.0 kmh E 6.0 mph9.7 kmh 29.88 in1011.9 mb 0.00 in0.0 mm 0.00 in0.0 mm 0.00 in0.0 mm
07:30 PM 62.1°F16.7°C 51.8°F11.0°C 69% 5.0 mph E8.0 kmh E 5.0 mph8.0 kmh 29.88 in1011.9 mb 0.00 in0.0 mm 0.00 in0.0 mm 0.00 in0.0 mm
07:35 PM 61.9°F16.6°C 52.0°F11.1°C 70% 4.0 mph E6.4 kmh E 6.0 mph9.7 kmh 29.88 in1011.9 mb 0.00 in0.0 mm 0.00 in0.0 mm 0.00 in0.0 mm
07:40 PM 61.8°F16.6°C 51.9°F11.1°C 70% 2.0 mph ESE3.2 kmh ESE 7.0 mph11.3 kmh 29.88 in1011.9 mb 0.00 in0.0 mm 0.00 in0.0 mm 0.00 in0.0 mm
07:45 PM 61.6°F16.4°C 51.7°F10.9°C 70% 2.0 mph E3.2 kmh E 7.0 mph11.3 kmh 29.89 in1012.2 mb 0.00 in0.0 mm 0.00 in0.0 mm 0.00 in0.0 mm
07:50 PM 61.4°F16.3°C 51.5°F10.8°C 70% 9.0 mph E14.5 kmh E 9.0 mph14.5 kmh 29.89 in1012.2 mb 0.00 in0.0 mm 0.00 in0.0 mm 0.00 in0.0 mm
07:55 PM 61.1°F16.2°C 51.6°F10.9°C 71% 4.0 mph ESE6.4 kmh ESE 6.0 mph9.7 kmh 29.89 in1012.2 mb 0.00 in0.0 mm 0.00 in0.0 mm 0.00 in0.0 mm
08:00 PM 60.9°F16.1°C 51.4°F10.8°C 71% 2.0 mph E3.2 kmh E 6.0 mph9.7 kmh 29.89 in1012.2 mb 0.00 in0.0 mm 0.00 in0.0 mm 0.00 in0.0 mm
08:05 PM 60.9°F16.1°C 51.4°F10.8°C 71% 4.0 mph ESE6.4 kmh ESE 6.0 mph9.7 kmh 29.88 in1011.9 mb 0.00 in0.0 mm 0.00 in0.0 mm 0.00 in0.0 mm
08:10 PM 60.7°F15.9°C 51.2°F10.7°C 71% 2.0 mph SE3.2 kmh SE 4.0 mph6.4 kmh 29.88 in1011.9 mb 0.00 in0.0 mm 0.00 in0.0 mm 0.00 in0.0 mm
08:15 PM 60.6°F15.9°C 50.7°F10.4°C 70% 2.0 mph SE3.2 kmh SE 4.0 mph6.4 kmh 29.88 in1011.9 mb 0.00 in0.0 mm 0.00 in0.0 mm 0.00 in0.0 mm
08:20 PM 60.5°F15.8°C 50.6°F10.3°C 70% 1.0 mph S1.6 kmh S 7.0 mph11.3 kmh 29.88 in1011.9 mb 0.00 in0.0 mm 0.00 in0.0 mm 0.00 in0.0 mm
08:25 PM 60.5°F15.8°C 50.6°F10.3°C 70% 1.0 mph E1.6 kmh E 6.0 mph9.7 kmh 29.88 in1011.9 mb 0.00 in0.0 mm 0.00 in0.0 mm 0.00 in0.0 mm
08:30 PM 60.5°F15.8°C 50.2°F10.1°C 69% 1.0 mph ESE1.6 kmh ESE 5.0 mph8.0 kmh 29.88 in1011.9 mb 0.00 in0.0 mm 0.00 in0.0 mm 0.00 in0.0 mm
08:35 PM 60.5°F15.8°C 49.8°F9.9°C 68% Calm Calm 5.0 mph8.0 kmh 29.88 in1011.9 mb 0.00 in0.0 mm 0.00 in0.0 mm 0.00 in0.0 mm
08:40 PM 60.6°F15.9°C 49.5°F9.7°C 67% 2.0 mph ESE3.2 kmh ESE 6.0 mph9.7 kmh 29.88 in1011.9 mb 0.00 in0.0 mm 0.00 in0.0 mm 0.00 in0.0 mm
08:45 PM 60.7°F15.9°C 49.6°F9.8°C 67% 3.0 mph SE4.8 kmh SE 7.0 mph11.3 kmh 29.88 in1011.9 mb 0.00 in0.0 mm 0.00 in0.0 mm 0.00 in0.0 mm
08:50 PM 60.7°F15.9°C 49.2°F9.6°C 66% 3.0 mph SE4.8 kmh SE 6.0 mph9.7 kmh 29.88 in1011.9 mb 0.00 in0.0 mm 0.00 in0.0 mm 0.00 in0.0 mm
08:55 PM 60.8°F16.0°C 48.9°F9.4°C 65% 2.0 mph SSE3.2 kmh SSE 9.0 mph14.5 kmh 29.88 in1011.9 mb 0.00 in0.0 mm 0.00 in0.0 mm 0.00 in0.0 mm
09:00 PM 60.9°F16.1°C 48.6°F9.2°C 64% 3.0 mph E4.8 kmh E 7.0 mph11.3 kmh 29.88 in1011.9 mb 0.00 in0.0 mm 0.00 in0.0 mm 0.00 in0.0 mm
09:05 PM 60.9°F16.1°C 48.2°F9.0°C 63% 5.0 mph SE8.0 kmh SE 10.0 mph16.1 kmh 29.87 in1011.5 mb 0.00 in0.0 mm 0.00 in0.0 mm 0.00 in0.0 mm
09:10 PM 61.0°F16.1°C 48.3°F9.1°C 63% 3.0 mph SE4.8 kmh SE 7.0 mph11.3 kmh 29.87 in1011.5 mb 0.00 in0.0 mm 0.00 in0.0 mm 0.00 in0.0 mm
09:15 PM 61.0°F16.1°C 47.8°F8.8°C 62% 2.0 mph SE3.2 kmh SE 6.0 mph9.7 kmh 29.87 in1011.5 mb 0.00 in0.0 mm 0.00 in0.0 mm 0.00 in0.0 mm
09:20 PM 61.0°F16.1°C 47.4°F8.6°C 61% 4.0 mph SE6.4 kmh SE 7.0 mph11.3 kmh 29.87 in1011.5 mb 0.00 in0.0 mm 0.00 in0.0 mm 0.00 in0.0 mm
09:25 PM 61.0°F16.1°C 47.4°F8.6°C 61% 3.0 mph SE4.8 kmh SE 7.0 mph11.3 kmh 29.87 in1011.5 mb 0.00 in0.0 mm 0.00 in0.0 mm 0.00 in0.0 mm
09:30 PM 61.0°F16.1°C 47.4°F8.6°C 61% 4.0 mph SE6.4 kmh SE 7.0 mph11.3 kmh 29.88 in1011.9 mb 0.00 in0.0 mm 0.00 in0.0 mm 0.00 in0.0 mm
09:35 PM 60.9°F16.1°C 47.3°F8.5°C 61% 3.0 mph ESE4.8 kmh ESE 6.0 mph9.7 kmh 29.88 in1011.9 mb 0.00 in0.0 mm 0.00 in0.0 mm 0.00 in0.0 mm
09:40 PM 60.6°F15.9°C 47.0°F8.3°C 61% 2.0 mph SE3.2 kmh SE 9.0 mph14.5 kmh 29.87 in1011.5 mb 0.00 in0.0 mm 0.00 in0.0 mm 0.00 in0.0 mm
09:45 PM 60.5°F15.8°C 46.9°F8.3°C 61% 4.0 mph SE6.4 kmh SE 6.0 mph9.7 kmh 29.87 in1011.5 mb 0.00 in0.0 mm 0.00 in0.0 mm 0.00 in0.0 mm
09:50 PM 60.3°F15.7°C 46.3°F7.9°C 60% 1.0 mph SE1.6 kmh SE 8.0 mph12.9 kmh 29.87 in1011.5 mb 0.00 in0.0 mm 0.00 in0.0 mm 0.00 in0.0 mm
09:55 PM 60.2°F15.7°C 46.2°F7.9°C 60% 1.0 mph ESE1.6 kmh ESE 6.0 mph9.7 kmh 29.88 in1011.9 mb 0.00 in0.0 mm 0.00 in0.0 mm 0.00 in0.0 mm
10:00 PM 60.1°F15.6°C 46.1°F7.8°C 60% 2.0 mph ESE3.2 kmh ESE 5.0 mph8.0 kmh 29.87 in1011.5 mb 0.00 in0.0 mm 0.00 in0.0 mm 0.00 in0.0 mm
10:05 PM 59.9°F15.5°C 45.9°F7.7°C 60% 4.0 mph SE6.4 kmh SE 7.0 mph11.3 kmh 29.87 in1011.5 mb 0.00 in0.0 mm 0.00 in0.0 mm 0.00 in0.0 mm
10:10 PM 59.9°F15.5°C 45.9°F7.7°C 60% 3.0 mph SE4.8 kmh SE 6.0 mph9.7 kmh 29.87 in1011.5 mb 0.00 in0.0 mm 0.00 in0.0 mm 0.00 in0.0 mm
10:15 PM 59.8°F15.4°C 45.8°F7.7°C 60% 1.0 mph SE1.6 kmh SE 5.0 mph8.0 kmh 29.87 in1011.5 mb 0.00 in0.0 mm 0.00 in0.0 mm 0.00 in0.0 mm
10:20 PM 59.7°F15.4°C 45.7°F7.6°C 60% 1.0 mph ESE1.6 kmh ESE 4.0 mph6.4 kmh 29.87 in1011.5 mb 0.00 in0.0 mm 0.00 in0.0 mm 0.00 in0.0 mm
10:25 PM 59.4°F15.2°C 45.9°F7.7°C 61% Calm Calm 3.0 mph4.8 kmh 29.87 in1011.5 mb 0.00 in0.0 mm 0.00 in0.0 mm 0.00 in0.0 mm
10:30 PM 59.3°F15.2°C 45.8°F7.7°C 61% 1.0 mph SE1.6 kmh SE 2.0 mph3.2 kmh 29.87 in1011.5 mb 0.00 in0.0 mm 0.00 in0.0 mm 0.00 in0.0 mm
10:35 PM 58.9°F14.9°C 45.9°F7.7°C 62% Calm Calm 2.0 mph3.2 kmh 29.87 in1011.5 mb 0.00 in0.0 mm 0.00 in0.0 mm 0.00 in0.0 mm
10:40 PM 58.5°F14.7°C 45.9°F7.7°C 63% 2.0 mph SE3.2 kmh SE 3.0 mph4.8 kmh 29.87 in1011.5 mb 0.00 in0.0 mm 0.00 in0.0 mm 0.00 in0.0 mm
10:45 PM 58.2°F14.6°C 45.6°F7.6°C 63% 1.0 mph SSE1.6 kmh SSE 3.0 mph4.8 kmh 29.87 in1011.5 mb 0.00 in0.0 mm 0.00 in0.0 mm 0.00 in0.0 mm
10:50 PM 58.0°F14.4°C 45.4°F7.4°C 63% 1.0 mph SSE1.6 kmh SSE 2.0 mph3.2 kmh 29.87 in1011.5 mb 0.00 in0.0 mm 0.00 in0.0 mm 0.00 in0.0 mm
10:55 PM 57.8°F14.3°C 45.7°F7.6°C 64% 1.0 mph SE1.6 kmh SE 2.0 mph3.2 kmh 29.87 in1011.5 mb 0.00 in0.0 mm 0.00 in0.0 mm 0.00 in0.0 mm
11:00 PM 57.6°F14.2°C 45.5°F7.5°C 64% 2.0 mph SE3.2 kmh SE 3.0 mph4.8 kmh 29.87 in1011.5 mb 0.00 in0.0 mm 0.00 in0.0 mm 0.00 in0.0 mm
11:05 PM 57.4°F14.1°C 45.7°F7.6°C 65% 2.0 mph SSE3.2 kmh SSE 3.0 mph4.8 kmh 29.87 in1011.5 mb 0.00 in0.0 mm 0.00 in0.0 mm 0.00 in0.0 mm
11:10 PM 57.1°F13.9°C 45.4°F7.4°C 65% 1.0 mph SE1.6 kmh SE 3.0 mph4.8 kmh 29.87 in1011.5 mb 0.00 in0.0 mm 0.00 in0.0 mm 0.00 in0.0 mm
11:15 PM 57.0°F13.9°C 45.3°F7.4°C 65% 2.0 mph SE3.2 kmh SE 3.0 mph4.8 kmh 29.87 in1011.5 mb 0.00 in0.0 mm 0.00 in0.0 mm 0.00 in0.0 mm
11:20 PM 56.8°F13.8°C 45.1°F7.3°C 65% 1.0 mph SE1.6 kmh SE 3.0 mph4.8 kmh 29.87 in1011.5 mb 0.00 in0.0 mm 0.00 in0.0 mm 0.00 in0.0 mm
11:25 PM 56.7°F13.7°C 45.0°F7.2°C 65% 2.0 mph SE3.2 kmh SE 5.0 mph8.0 kmh 29.87 in1011.5 mb 0.00 in0.0 mm 0.00 in0.0 mm 0.00 in0.0 mm
11:30 PM 56.6°F13.7°C 45.3°F7.4°C 66% 3.0 mph S4.8 kmh S 5.0 mph8.0 kmh 29.87 in1011.5 mb 0.00 in0.0 mm 0.00 in0.0 mm 0.00 in0.0 mm
11:35 PM 56.6°F13.7°C 45.3°F7.4°C 66% 1.0 mph SE1.6 kmh SE 3.0 mph4.8 kmh 29.87 in1011.5 mb 0.00 in0.0 mm 0.00 in0.0 mm 0.00 in0.0 mm
11:40 PM 56.6°F13.7°C 45.3°F7.4°C 66% 2.0 mph SE3.2 kmh SE 4.0 mph6.4 kmh 29.87 in1011.5 mb 0.00 in0.0 mm 0.00 in0.0 mm 0.00 in0.0 mm
11:45 PM 56.3°F13.5°C 45.4°F7.4°C 67% 2.0 mph ESE3.2 kmh ESE 5.0 mph8.0 kmh 29.88 in1011.9 mb 0.00 in0.0 mm 0.00 in0.0 mm 0.00 in0.0 mm
11:50 PM 56.0°F13.3°C 45.1°F7.3°C 67% 2.0 mph ESE3.2 kmh ESE 4.0 mph6.4 kmh 29.87 in1011.5 mb 0.00 in0.0 mm 0.00 in0.0 mm 0.00 in0.0 mm
11:55 PM 55.9°F13.3°C 45.1°F7.3°C 67% 2.0 mph SE3.2 kmh SE 3.0 mph4.8 kmh 29.88 in1011.9 mb 0.00 in0.0 mm 0.00 in0.0 mm 0.00 in0.0 mm